Maunaloa, Hawaii
Current Conditions -  °F | °C
As of 10:54 PM on Wednesday 22 Oct 2014 (Local Time) from PHMK Reporting Station
Broken Clouds Broken Clouds  
Wind Chill: 72°   Ceiling: 6500
Heat Index: 72°   Visibility: 10mi
Dew Point: 72°   Wind: 0mph
Humidity: 100%   Direction: NA
Pressure: 30.04"   Gusts: NA
Location:  21.13°N, 157.21°W
Report Text: PHMK 230854Z AUTO 00000KT 10SM BKN065 22/22 A3004 RMK AO2 SLP173 60001 T02220222 50000 TSNO $
Loading
Personal Weather Stations






























Interactive Weather Map
Tropical Storm Tracking
New forecast layout! Learn more

10-Day Weather Forecast

Advertisements
Track Severe Weather on mobile